KDNV

Vermilion Regional Airport

Danville, Illinois, USA
METAR KDNV 231415Z AUTO 26014G17KT 10SM OVC007 08/08 A3014 RMK AO2 T00800080
Observed Flight Rules
Feb-23 @ 14:15 UTC (18 minutes ago) Instrument Flight Rules
Wind Visibility Clouds
260° at 14 knots
 Gusting to 17 knots
10 miles
  • Overcast at 700' AGL
Temperatures Readings
Current 8°C / 46°F
Dewpoint 8°C / 46°F
Humidity 100%
Altimeter 30.14" Hg
Pressure 1021 hPa
Elevation 212
METAR KDNV 231415Z AUTO 26014G17KT 10SM OVC007 08/08 A3014 RMK AO2 T00800080
Observed Flight Rules
Feb-23 @ 14:15 UTC
(18 minutes ago)
IFR
Wind Visibility
260° at 14 knots
 Gusting to 17 knots
10 miles
Clouds
  • Overcast at 700' AGL
Temperature Dewpoint
8°C / 46°F 8°C / 46°F
Humidity Altimeter Pressure
100% 30.14" Hg 1021 hPa